sensor_id;sensor_type;location;lat;lon;timestamp;pressure;altitude;pressure_sealevel;temperature;humidity
57904;BME280;43720;47.462;19.030;2023-04-03T03:56:53;100305.13;;;6.69;66.36
57904;BME280;43720;47.462;19.030;2023-04-03T03:59:58;100312.19;;;6.43;63.72
57904;BME280;43720;47.462;19.030;2023-04-03T04:03:00;100315.28;;;6.31;64.01
57904;BME280;43720;47.462;19.030;2023-04-03T04:06:03;100314.38;;;6.31;65.68
57904;BME280;43720;47.462;19.030;2023-04-03T04:09:06;100312.63;;;6.30;65.93
57904;BME280;43720;47.462;19.030;2023-04-03T04:12:09;100308.59;;;6.40;64.54
57904;BME280;43720;47.462;19.030;2023-04-03T04:15:12;100305.44;;;6.50;64.79
57904;BME280;43720;47.462;19.030;2023-04-03T04:18:14;100317.31;;;6.42;65.07
57904;BME280;43720;47.462;19.030;2023-04-03T04:21:17;100320.97;;;6.48;65.12
57904;BME280;43720;47.462;19.030;2023-04-03T04:24:19;100315.47;;;6.37;64.35
57904;BME280;43720;47.462;19.030;2023-04-03T04:27:22;100320.66;;;6.37;66.05
57904;BME280;43720;47.462;19.030;2023-04-03T04:30:24;100316.31;;;6.36;64.39
57904;BME280;43720;47.462;19.030;2023-04-03T04:33:26;100317.44;;;6.46;66.09
57904;BME280;43720;47.462;19.030;2023-04-03T04:36:29;100319.50;;;6.56;64.96
57904;BME280;43720;47.462;19.030;2023-04-03T04:39:32;100321.84;;;6.49;65.40
57904;BME280;43720;47.462;19.030;2023-04-03T04:42:35;100321.66;;;6.43;63.92
57904;BME280;43720;47.462;19.030;2023-04-03T04:45:37;100325.94;;;6.41;64.61
57904;BME280;43720;47.462;19.030;2023-04-03T04:48:40;100321.41;;;6.33;65.54
57904;BME280;43720;47.462;19.030;2023-04-03T04:51:43;100332.63;;;6.32;64.13
57904;BME280;43720;47.462;19.030;2023-04-03T04:54:53;100326.00;;;6.15;64.37
57904;BME280;43720;47.462;19.030;2023-04-03T04:58:00;100327.34;;;6.31;66.46
57904;BME280;43720;47.462;19.030;2023-04-03T05:01:05;100331.84;;;6.35;67.89
57904;BME280;43720;47.462;19.030;2023-04-03T05:04:08;100333.69;;;6.39;65.41
57904;BME280;43720;47.462;19.030;2023-04-03T05:07:12;100338.09;;;6.42;64.94
57904;BME280;43720;47.462;19.030;2023-04-03T05:10:16;100333.62;;;6.37;63.71
57904;BME280;43720;47.462;19.030;2023-04-03T05:13:20;100342.28;;;6.38;65.10
57904;BME280;43720;47.462;19.030;2023-04-03T05:16:22;100343.38;;;6.16;64.80
57904;BME280;43720;47.462;19.030;2023-04-03T05:19:25;100352.16;;;6.21;65.57
57904;BME280;43720;47.462;19.030;2023-04-03T05:22:28;100347.81;;;6.20;65.59
57904;BME280;43720;47.462;19.030;2023-04-03T05:25:31;100338.03;;;6.40;65.42
57904;BME280;43720;47.462;19.030;2023-04-03T05:28:34;100333.97;;;6.48;65.98
57904;BME280;43720;47.462;19.030;2023-04-03T05:31:36;100334.84;;;6.49;65.91
57904;BME280;43720;47.462;19.030;2023-04-03T05:34:40;100331.22;;;6.72;66.36
57904;BME280;43720;47.462;19.030;2023-04-03T05:37:43;100331.97;;;6.70;63.74
57904;BME280;43720;47.462;19.030;2023-04-03T05:40:45;100332.69;;;6.64;64.16
57904;BME280;43720;47.462;19.030;2023-04-03T05:43:48;100324.66;;;6.55;63.49
57904;BME280;43720;47.462;19.030;2023-04-03T05:46:51;100341.13;;;6.57;64.88
57904;BME280;43720;47.462;19.030;2023-04-03T05:49:54;100347.69;;;6.44;65.94
57904;BME280;43720;47.462;19.030;2023-04-03T05:52:58;100345.69;;;6.35;63.83
57904;BME280;43720;47.462;19.030;2023-04-03T05:56:01;100360.34;;;6.33;63.82
57904;BME280;43720;47.462;19.030;2023-04-03T05:59:04;100360.91;;;6.52;64.44
57904;BME280;43720;47.462;19.030;2023-04-03T06:02:10;100365.03;;;6.45;64.15
57904;BME280;43720;47.462;19.030;2023-04-03T06:05:13;100364.00;;;6.69;65.31
57904;BME280;43720;47.462;19.030;2023-04-03T06:08:16;100365.06;;;6.75;64.93
57904;BME280;43720;47.462;19.030;2023-04-03T06:11:22;100370.38;;;6.78;62.35
57904;BME280;43720;47.462;19.030;2023-04-03T06:14:25;100378.00;;;7.02;64.16
57904;BME280;43720;47.462;19.030;2023-04-03T06:17:28;100374.72;;;7.09;64.84
57904;BME280;43720;47.462;19.030;2023-04-03T06:20:31;100379.53;;;6.96;61.39
57904;BME280;43720;47.462;19.030;2023-04-03T06:23:34;100377.31;;;6.79;62.10
57904;BME280;43720;47.462;19.030;2023-04-03T06:26:36;100382.03;;;6.93;63.95
57904;BME280;43720;47.462;19.030;2023-04-03T06:29:39;100380.38;;;6.95;61.98
57904;BME280;43720;47.462;19.030;2023-04-03T06:32:41;100381.03;;;6.87;62.42
57904;BME280;43720;47.462;19.030;2023-04-03T06:35:45;100385.75;;;7.01;62.38
57904;BME280;43720;47.462;19.030;2023-04-03T06:38:47;100380.06;;;7.14;61.81
57904;BME280;43720;47.462;19.030;2023-04-03T06:41:50;100390.41;;;7.13;65.26
57904;BME280;43720;47.462;19.030;2023-04-03T06:44:53;100384.47;;;7.17;62.59
57904;BME280;43720;47.462;19.030;2023-04-03T06:47:56;100385.34;;;7.17;62.33
57904;BME280;43720;47.462;19.030;2023-04-03T06:50:58;100391.53;;;7.22;63.47
57904;BME280;43720;47.462;19.030;2023-04-03T06:54:02;100395.53;;;7.41;60.56
57904;BME280;43720;47.462;19.030;2023-04-03T06:57:05;100399.63;;;7.63;61.12
57904;BME280;43720;47.462;19.030;2023-04-03T07:00:08;100404.97;;;7.69;61.26
57904;BME280;43720;47.462;19.030;2023-04-03T07:03:12;100399.47;;;7.92;60.04
57904;BME280;43720;47.462;19.030;2023-04-03T07:06:15;100402.56;;;8.10;59.98
57904;BME280;43720;47.462;19.030;2023-04-03T07:09:18;100406.81;;;8.43;59.59
57904;BME280;43720;47.462;19.030;2023-04-03T07:12:21;100408.81;;;8.53;58.00
57904;BME280;43720;47.462;19.030;2023-04-03T07:15:23;100408.34;;;8.71;56.69
57904;BME280;43720;47.462;19.030;2023-04-03T07:18:26;100418.59;;;9.02;58.23
57904;BME280;43720;47.462;19.030;2023-04-03T07:21:29;100410.03;;;9.10;55.42
57904;BME280;43720;47.462;19.030;2023-04-03T07:24:31;100403.37;;;9.22;55.08
57904;BME280;43720;47.462;19.030;2023-04-03T07:27:34;100411.09;;;9.18;55.68
57904;BME280;43720;47.462;19.030;2023-04-03T07:30:42;100416.34;;;9.19;53.84
57904;BME280;43720;47.462;19.030;2023-04-03T07:33:45;100411.53;;;9.41;54.26
57904;BME280;43720;47.462;19.030;2023-04-03T07:36:48;100417.22;;;9.20;54.63
57904;BME280;43720;47.462;19.030;2023-04-03T07:39:50;100418.53;;;9.42;54.46
57904;BME280;43720;47.462;19.030;2023-04-03T07:42:53;100412.69;;;9.53;54.70
57904;BME280;43720;47.462;19.030;2023-04-03T07:45:55;100420.22;;;9.38;51.78
57904;BME280;43720;47.462;19.030;2023-04-03T07:48:57;100421.97;;;9.39;52.00
57904;BME280;43720;47.462;19.030;2023-04-03T07:52:00;100425.50;;;9.41;50.87
57904;BME280;43720;47.462;19.030;2023-04-03T07:55:02;100426.53;;;9.51;51.12
57904;BME280;43720;47.462;19.030;2023-04-03T07:58:04;100426.91;;;9.71;53.54
57904;BME280;43720;47.462;19.030;2023-04-03T08:01:07;100433.16;;;9.79;53.55
57904;BME280;43720;47.462;19.030;2023-04-03T08:04:09;100435.22;;;9.50;52.33
57904;BME280;43720;47.462;19.030;2023-04-03T08:07:12;100428.94;;;9.86;51.61
57904;BME280;43720;47.462;19.030;2023-04-03T08:10:15;100434.28;;;9.92;52.16
57904;BME280;43720;47.462;19.030;2023-04-03T08:13:17;100435.88;;;9.84;50.28
57904;BME280;43720;47.462;19.030;2023-04-03T08:16:22;100443.69;;;9.84;51.84
57904;BME280;43720;47.462;19.030;2023-04-03T08:19:25;100434.09;;;9.83;49.68
57904;BME280;43720;47.462;19.030;2023-04-03T08:22:29;100436.75;;;9.86;50.27
57904;BME280;43720;47.462;19.030;2023-04-03T08:25:31;100438.03;;;10.09;50.90
57904;BME280;43720;47.462;19.030;2023-04-03T08:28:34;100442.75;;;10.27;52.60
57904;BME280;43720;47.462;19.030;2023-04-03T08:31:36;100443.19;;;10.03;51.46
57904;BME280;43720;47.462;19.030;2023-04-03T08:34:39;100446.81;;;10.13;49.22
57904;BME280;43720;47.462;19.030;2023-04-03T08:37:41;100440.03;;;10.22;48.83
57904;BME280;43720;47.462;19.030;2023-04-03T08:40:44;100440.91;;;10.24;48.87
57904;BME280;43720;47.462;19.030;2023-04-03T08:50:28;100441.25;;;10.43;47.25
57904;BME280;43720;47.462;19.030;2023-04-03T08:53:35;100441.28;;;10.44;47.30
57904;BME280;43720;47.462;19.030;2023-04-03T08:56:41;100443.16;;;10.53;48.00
57904;BME280;43720;47.462;19.030;2023-04-03T08:59:43;100436.28;;;10.60;48.16
57904;BME280;43720;47.462;19.030;2023-04-03T09:02:48;100438.03;;;10.61;47.15
57904;BME280;43720;47.462;19.030;2023-04-03T09:06:04;100433.94;;;10.78;48.39
57904;BME280;43720;47.462;19.030;2023-04-03T09:12:38;100438.44;;;10.87;47.11
57904;BME280;43720;47.462;19.030;2023-04-03T09:15:43;100439.25;;;10.83;44.12
57904;BME280;43720;47.462;19.030;2023-04-03T09:18:55;100443.19;;;10.56;45.45
57904;BME280;43720;47.462;19.030;2023-04-03T09:22:11;100450.47;;;10.75;45.20
57904;BME280;43720;47.462;19.030;2023-04-03T09:25:23;100448.66;;;10.70;43.24
57904;BME280;43720;47.462;19.030;2023-04-03T09:28:25;100449.69;;;10.81;44.37
57904;BME280;43720;47.462;19.030;2023-04-03T09:31:38;100454.37;;;11.04;44.82
57904;BME280;43720;47.462;19.030;2023-04-03T09:34:43;100453.78;;;11.26;43.25
57904;BME280;43720;47.462;19.030;2023-04-03T09:37:50;100449.47;;;11.30;43.89
57904;BME280;43720;47.462;19.030;2023-04-03T09:41:20;100453.87;;;11.32;44.89
57904;BME280;43720;47.462;19.030;2023-04-03T09:44:26;100444.56;;;11.57;42.34
57904;BME280;43720;47.462;19.030;2023-04-03T09:47:34;100437.75;;;11.71;41.41
57904;BME280;43720;47.462;19.030;2023-04-03T09:54:34;100442.09;;;11.71;41.26
57904;BME280;43720;47.462;19.030;2023-04-03T09:57:39;100432.78;;;11.93;40.54
57904;BME280;43720;47.462;19.030;2023-04-03T10:00:42;100431.31;;;12.26;40.35
57904;BME280;43720;47.462;19.030;2023-04-03T10:03:44;100431.88;;;11.91;40.36
57904;BME280;43720;47.462;19.030;2023-04-03T10:06:51;100436.34;;;12.01;41.51
57904;BME280;43720;47.462;19.030;2023-04-03T10:09:55;100438.16;;;12.08;42.78
57904;BME280;43720;47.462;19.030;2023-04-03T10:13:16;100436.78;;;11.62;42.18
57904;BME280;43720;47.462;19.030;2023-04-03T10:16:32;100442.44;;;11.25;42.46
57904;BME280;43720;47.462;19.030;2023-04-03T10:19:45;100439.00;;;11.28;44.82
57904;BME280;43720;47.462;19.030;2023-04-03T10:23:33;100437.78;;;11.03;43.62
57904;BME280;43720;47.462;19.030;2023-04-03T10:26:53;100433.84;;;10.72;45.08
57904;BME280;43720;47.462;19.030;2023-04-03T10:30:34;100440.00;;;10.75;45.12
57904;BME280;43720;47.462;19.030;2023-04-03T10:34:35;100438.31;;;10.79;47.96
57904;BME280;43720;47.462;19.030;2023-04-03T10:37:22;100443.44;;;10.70;44.31
57904;BME280;43720;47.462;19.030;2023-04-03T10:40:45;100434.94;;;10.85;43.95
57904;BME280;43720;47.462;19.030;2023-04-03T10:47:19;100430.63;;;10.88;44.40
57904;BME280;43720;47.462;19.030;2023-04-03T10:50:58;100431.97;;;11.25;46.38
57904;BME280;43720;47.462;19.030;2023-04-03T10:57:19;100427.75;;;11.38;44.39
57904;BME280;43720;47.462;19.030;2023-04-03T11:00:30;100423.25;;;11.23;42.28
57904;BME280;43720;47.462;19.030;2023-04-03T11:03:36;100424.94;;;11.20;43.36
57904;BME280;43720;47.462;19.030;2023-04-03T11:06:50;100426.59;;;11.15;41.97
57904;BME280;43720;47.462;19.030;2023-04-03T11:10:00;100423.25;;;11.26;43.47
57904;BME280;43720;47.462;19.030;2023-04-03T11:13:14;100429.41;;;11.30;42.46
57904;BME280;43720;47.462;19.030;2023-04-03T11:16:23;100420.44;;;11.08;43.93
57904;BME280;43720;47.462;19.030;2023-04-03T11:19:50;100421.16;;;10.99;42.22
57904;BME280;43720;47.462;19.030;2023-04-03T11:26:10;100422.28;;;11.15;42.70
57904;BME280;43720;47.462;19.030;2023-04-03T11:29:19;100416.13;;;11.13;42.64
57904;BME280;43720;47.462;19.030;2023-04-03T11:33:02;100409.44;;;11.37;44.34
57904;BME280;43720;47.462;19.030;2023-04-03T11:36:22;100403.28;;;11.32;41.34
57904;BME280;43720;47.462;19.030;2023-04-03T11:39:36;100397.03;;;11.20;42.49
57904;BME280;43720;47.462;19.030;2023-04-03T11:42:42;100396.50;;;11.52;44.59
57904;BME280;43720;47.462;19.030;2023-04-03T11:46:08;100398.22;;;11.47;41.84
57904;BME280;43720;47.462;19.030;2023-04-03T11:52:55;100397.38;;;11.51;40.37
57904;BME280;43720;47.462;19.030;2023-04-03T11:56:26;100392.66;;;11.22;40.12
57904;BME280;43720;47.462;19.030;2023-04-03T11:59:37;100391.00;;;11.29;40.51
57904;BME280;43720;47.462;19.030;2023-04-03T12:02:40;100391.16;;;11.40;40.28
57904;BME280;43720;47.462;19.030;2023-04-03T12:08:59;100394.56;;;11.34;40.96
57904;BME280;43720;47.462;19.030;2023-04-03T12:15:41;100391.22;;;11.49;40.75
57904;BME280;43720;47.462;19.030;2023-04-03T12:25:40;100383.19;;;11.31;39.90
57904;BME280;43720;47.462;19.030;2023-04-03T12:28:50;100381.19;;;11.10;40.93
57904;BME280;43720;47.462;19.030;2023-04-03T12:39:01;100380.72;;;11.43;42.05
57904;BME280;43720;47.462;19.030;2023-04-03T12:42:39;100386.91;;;11.51;41.37
57904;BME280;43720;47.462;19.030;2023-04-03T12:49:18;100374.00;;;11.69;40.15
57904;BME280;43720;47.462;19.030;2023-04-03T12:52:43;100371.50;;;11.82;42.79
57904;BME280;43720;47.462;19.030;2023-04-03T12:55:46;100369.91;;;11.96;39.72
57904;BME280;43720;47.462;19.030;2023-04-03T12:58:50;100367.25;;;11.90;38.35
57904;BME280;43720;47.462;19.030;2023-04-03T13:02:03;100366.22;;;11.79;38.59
57904;BME280;43720;47.462;19.030;2023-04-03T13:05:18;100361.09;;;11.86;39.18
57904;BME280;43720;47.462;19.030;2023-04-03T13:08:21;100357.72;;;11.98;40.16
57904;BME280;43720;47.462;19.030;2023-04-03T13:11:26;100353.34;;;12.00;39.40
57904;BME280;43720;47.462;19.030;2023-04-03T13:14:29;100352.59;;;12.15;40.26
57904;BME280;43720;47.462;19.030;2023-04-03T13:17:38;100350.00;;;12.18;39.34
57904;BME280;43720;47.462;19.030;2023-04-03T13:20:41;100350.94;;;12.31;40.36
57904;BME280;43720;47.462;19.030;2023-04-03T13:23:48;100350.19;;;12.50;40.96
57904;BME280;43720;47.462;19.030;2023-04-03T13:26:59;100346.44;;;12.11;39.65
57904;BME280;43720;47.462;19.030;2023-04-03T13:30:04;100336.84;;;12.10;40.16
57904;BME280;43720;47.462;19.030;2023-04-03T13:33:21;100339.41;;;12.03;39.20
57904;BME280;43720;47.462;19.030;2023-04-03T13:36:42;100342.97;;;12.12;41.10
57904;BME280;43720;47.462;19.030;2023-04-03T13:39:45;100342.22;;;12.30;39.70
57904;BME280;43720;47.462;19.030;2023-04-03T13:43:18;100334.47;;;12.47;38.48
57904;BME280;43720;47.462;19.030;2023-04-03T13:46:28;100336.25;;;12.57;39.68
57904;BME280;43720;47.462;19.030;2023-04-03T13:49:37;100333.47;;;12.31;37.39
57904;BME280;43720;47.462;19.030;2023-04-03T13:55:56;100331.66;;;12.16;37.52
57904;BME280;43720;47.462;19.030;2023-04-03T14:02:20;100319.50;;;12.28;39.10
57904;BME280;43720;47.462;19.030;2023-04-03T14:05:24;100314.28;;;12.34;38.07
57904;BME280;43720;47.462;19.030;2023-04-03T14:08:27;100315.09;;;12.27;37.70
57904;BME280;43720;47.462;19.030;2023-04-03T14:11:45;100310.59;;;12.04;38.26
57904;BME280;43720;47.462;19.030;2023-04-03T14:14:48;100316.84;;;12.26;40.87
57904;BME280;43720;47.462;19.030;2023-04-03T14:17:50;100310.50;;;11.95;38.46
57904;BME280;43720;47.462;19.030;2023-04-03T14:20:57;100313.25;;;12.09;41.08
57904;BME280;43720;47.462;19.030;2023-04-03T14:24:00;100302.13;;;12.45;38.51
57904;BME280;43720;47.462;19.030;2023-04-03T14:27:02;100310.81;;;12.42;38.58
57904;BME280;43720;47.462;19.030;2023-04-03T14:30:12;100311.75;;;12.49;39.66
57904;BME280;43720;47.462;19.030;2023-04-03T14:33:19;100312.31;;;12.02;37.55
57904;BME280;43720;47.462;19.030;2023-04-03T14:36:25;100306.19;;;12.00;37.70
57904;BME280;43720;47.462;19.030;2023-04-03T14:39:28;100304.25;;;11.79;37.88
57904;BME280;43720;47.462;19.030;2023-04-03T14:42:35;100308.66;;;11.82;39.06
57904;BME280;43720;47.462;19.030;2023-04-03T14:45:38;100313.53;;;11.45;38.63
57904;BME280;43720;47.462;19.030;2023-04-03T14:48:41;100317.09;;;11.51;40.40
57904;BME280;43720;47.462;19.030;2023-04-03T14:51:44;100308.41;;;11.57;40.40
57904;BME280;43720;47.462;19.030;2023-04-03T14:54:48;100317.94;;;11.49;39.83
57904;BME280;43720;47.462;19.030;2023-04-03T14:57:50;100323.28;;;11.60;39.58
57904;BME280;43720;47.462;19.030;2023-04-03T15:00:53;100330.16;;;11.47;41.22
57904;BME280;43720;47.462;19.030;2023-04-03T15:03:55;100322.34;;;11.51;42.71
57904;BME280;43720;47.462;19.030;2023-04-03T15:06:58;100318.03;;;11.61;41.47
57904;BME280;43720;47.462;19.030;2023-04-03T15:13:23;100311.00;;;11.52;42.26
